Time;durP1;ratioP1;P1;durP2;ratioP2;P2;SDS_P1;SDS_P2;PMS_P1;PMS_P2;Temp;Humidity;BMP_temperature;BMP_pressure;BME280_temperature;BME280_humidity;BME280_pressure;Samples;Min_cycle;Max_cycle;Signal;HPM_P1;HPM_P2
2023/09/23 00:00:47;;;;;;;5.53;3.85;;;;;;;13.67;73.73;100106.47;4051629;29;20571;-60
2023/09/23 00:02:50;;;;;;;5.95;4.25;;;;;;;13.71;73.34;100104.72;4051657;29;20060;-60
2023/09/23 00:04:53;;;;;;;6.15;4.22;;;;;;;13.73;73.67;100100.38;4050611;29;20477;-60
2023/09/23 00:06:57;;;;;;;3.97;2.75;;;;;;;13.74;73.56;100107.31;4051549;29;20041;-60
2023/09/23 00:09:01;;;;;;;3.38;2.47;;;;;;;13.74;72.90;100110.81;4050456;29;20043;-60
2023/09/23 00:11:05;;;;;;;4.15;2.35;;;;;;;13.73;73.21;100110.81;4051729;29;20527;-60
2023/09/23 00:13:08;;;;;;;2.95;1.95;;;;;;;13.70;73.07;100118.69;4051938;29;20040;-60
2023/09/23 00:15:11;;;;;;;3.78;2.42;;;;;;;13.72;72.06;100124.75;4049764;29;20127;-60
2023/09/23 00:17:14;;;;;;;5.63;2.67;;;;;;;13.68;72.58;100126.53;4050433;29;20041;-60
2023/09/23 00:19:18;;;;;;;4.22;1.40;;;;;;;13.68;73.28;100125.63;4051848;29;20590;-60
2023/09/23 00:21:21;;;;;;;4.20;1.92;;;;;;;13.73;73.09;100123.88;4049860;29;20059;-60
2023/09/23 00:23:24;;;;;;;4.05;1.80;;;;;;;13.74;73.30;100129.09;4057409;29;20047;-61
2023/09/23 00:25:27;;;;;;;2.20;1.27;;;;;;;13.72;72.37;100132.59;4051408;29;20469;-61
2023/09/23 00:27:31;;;;;;;4.22;1.30;;;;;;;13.72;73.14;100124.75;4051564;29;20040;-61
2023/09/23 00:29:34;;;;;;;2.20;1.27;;;;;;;13.69;72.92;100130.00;4062672;29;20570;-61
2023/09/23 00:31:37;;;;;;;2.25;1.05;;;;;;;13.69;72.73;100132.59;4050375;29;20131;-60
2023/09/23 00:33:40;;;;;;;4.40;1.30;;;;;;;13.65;72.90;100129.13;4051652;29;20445;-61
2023/09/23 00:35:44;;;;;;;1.83;1.17;;;;;;;13.63;73.42;100130.03;4051358;29;20041;-61
2023/09/23 00:37:48;;;;;;;3.75;2.60;;;;;;;13.61;73.37;100128.28;4049733;29;20047;-60
2023/09/23 00:39:51;;;;;;;6.53;3.35;;;;;;;13.60;73.08;100126.53;4051271;29;20048;-61
2023/09/23 00:41:54;;;;;;;5.55;4.47;;;;;;;13.58;73.62;100125.69;4051510;29;20120;-60
2023/09/23 00:44:00;;;;;;;7.25;5.75;;;;;;;13.60;73.92;100125.66;4050060;29;20045;-61
2023/09/23 00:46:05;;;;;;;6.88;5.15;;;;;;;13.56;73.43;100121.31;4049284;29;20135;-61
2023/09/23 00:48:11;;;;;;;6.03;4.95;;;;;;;13.57;73.31;100120.47;4050202;29;20147;-61
2023/09/23 00:50:19;;;;;;;12.52;6.28;;;;;;;13.56;74.08;100126.53;4050338;29;20467;-60
2023/09/23 00:52:22;;;;;;;7.63;5.57;;;;;;;13.54;73.70;100121.31;4050038;29;20594;-60
2023/09/23 00:54:25;;;;;;;9.18;6.28;;;;;;;13.51;74.56;100126.56;4050305;29;20040;-61
2023/09/23 00:56:30;;;;;;;9.45;4.90;;;;;;;13.51;74.31;100131.78;4035232;29;20127;-60
2023/09/23 00:58:36;;;;;;;7.50;4.68;;;;;;;13.48;74.30;100128.31;4058107;29;20136;-60
2023/09/23 01:00:43;;;;;;;;;;;;;;;13.33;74.54;100131.81;4065914;29;20067;-61
2023/09/23 01:02:48;;;;;;;7.40;3.10;;;;;;;13.35;75.17;100130.09;4050021;29;20018;-60
2023/09/23 01:04:51;;;;;;;5.85;3.00;;;;;;;13.37;74.42;100125.72;4031799;29;20041;-61
2023/09/23 01:06:55;;;;;;;6.57;2.40;;;;;;;13.33;74.04;100132.69;4049752;29;20040;-60
2023/09/23 01:09:00;;;;;;;7.03;2.08;;;;;;;13.31;74.09;100126.59;4051412;29;20061;-60
2023/09/23 01:11:04;;;;;;;2.97;2.10;;;;;;;13.31;74.70;100128.34;4051169;29;20421;-60
2023/09/23 01:13:16;;;;;;;5.97;1.65;;;;;;;13.28;74.38;100137.91;4065891;29;20040;-60
2023/09/23 01:15:20;;;;;;;1.35;1.10;;;;;;;13.27;74.25;100136.19;4049364;29;20086;-60
2023/09/23 01:17:26;;;;;;;1.30;1.10;;;;;;;13.30;73.93;100137.03;4063593;29;20130;-60
2023/09/23 01:19:30;;;;;;;3.55;1.08;;;;;;;13.26;73.89;100137.03;4048442;29;20045;-60
2023/09/23 01:21:33;;;;;;;1.50;0.82;;;;;;;13.17;73.73;100141.41;4051779;29;20046;-60
2023/09/23 01:23:38;;;;;;;11.30;1.77;;;;;;;13.14;74.35;100149.25;4065611;29;20040;-61
2023/09/23 01:25:41;;;;;;;0.90;0.75;;;;;;;13.10;74.09;100151.00;4049300;29;20457;-60
2023/09/23 01:27:44;;;;;;;0.93;0.80;;;;;;;13.07;74.35;100156.22;4065547;29;20167;-60
2023/09/23 01:29:52;;;;;;;1.70;0.90;;;;;;;13.08;74.37;100152.72;4046559;29;20132;-60
2023/09/23 01:32:13;;;;;;;2.88;0.65;;;;;;;13.08;74.96;100157.94;4047481;29;20083;-60
2023/09/23 01:34:16;;;;;;;1.55;0.77;;;;;;;13.03;75.35;100154.47;4053790;29;20033;-61
2023/09/23 01:36:19;;;;;;;1.65;0.90;;;;;;;13.04;75.69;100161.41;4049875;29;20435;-60
2023/09/23 01:38:23;;;;;;;3.47;1.10;;;;;;;13.06;75.51;100165.78;4054394;29;20104;-60
2023/09/23 01:40:29;;;;;;;1.52;0.80;;;;;;;13.10;75.81;100167.50;4052858;29;21473;-60
2023/09/23 01:42:32;;;;;;;6.43;1.30;;;;;;;13.08;75.58;100171.00;4053803;29;20131;-60
2023/09/23 01:44:36;;;;;;;1.55;0.80;;;;;;;13.07;75.94;100170.13;4037109;29;20041;-60
2023/09/23 01:46:39;;;;;;;1.30;1.02;;;;;;;13.07;76.21;100177.09;4034355;29;20101;-60
2023/09/23 01:48:42;;;;;;;1.02;0.80;;;;;;;13.08;75.55;100169.28;4053836;29;20095;-60
2023/09/23 01:50:49;;;;;;;0.80;0.80;;;;;;;13.05;75.96;100174.50;4068315;29;20063;-60
2023/09/23 01:52:52;;;;;;;2.25;1.08;;;;;;;13.06;75.90;100171.00;4052964;29;20064;-60
2023/09/23 01:54:55;;;;;;;2.13;0.68;;;;;;;13.06;75.41;100173.59;4052247;29;20135;-60
2023/09/23 01:56:59;;;;;;;1.02;0.90;;;;;;;13.07;75.88;100182.31;4068162;29;20457;-60
2023/09/23 01:59:02;;;;;;;2.35;0.70;;;;;;;13.06;75.51;100188.41;4052438;29;20092;-60
2023/09/23 02:01:05;;;;;;;1.15;0.98;;;;;;;13.08;75.34;100186.66;4052393;29;20072;-60
2023/09/23 02:03:08;;;;;;;2.45;0.75;;;;;;;13.03;74.80;100196.22;4065361;29;20095;-60
2023/09/23 02:05:11;;;;;;;2.83;1.15;;;;;;;12.98;75.20;100192.75;4071959;23;20048;-71
2023/09/23 02:07:14;;;;;;;1.30;0.80;;;;;;;12.95;75.63;100204.03;4072905;29;20051;-71
2023/09/23 02:09:17;;;;;;;4.22;1.02;;;;;;;12.93;75.19;100201.44;4068732;29;20068;-71
2023/09/23 02:11:20;;;;;;;4.68;0.95;;;;;;;12.90;75.69;100209.25;4067964;29;20063;-71
2023/09/23 02:13:28;;;;;;;4.50;0.80;;;;;;;12.88;75.61;100207.53;4074218;29;20060;-71
2023/09/23 02:15:31;;;;;;;5.32;1.15;;;;;;;12.87;75.65;100200.56;4075156;29;20040;-71
2023/09/23 02:17:35;;;;;;;1.15;0.80;;;;;;;12.89;76.32;100211.88;4081476;29;20052;-70
2023/09/23 02:19:39;;;;;;;1.42;0.80;;;;;;;12.88;76.19;100213.63;4065252;29;20231;-70
2023/09/23 02:21:42;;;;;;;2.70;0.80;;;;;;;12.88;76.04;100215.38;4081853;29;20048;-71
2023/09/23 02:23:46;;;;;;;5.87;1.07;;;;;;;12.85;76.26;100229.28;4085430;29;20047;-71
2023/09/23 02:25:51;;;;;;;3.40;0.90;;;;;;;12.84;76.33;100234.50;4084234;29;20299;-71
2023/09/23 02:27:55;;;;;;;1.38;0.55;;;;;;;12.84;75.88;100232.75;4083700;29;20134;-71
2023/09/23 02:30:04;;;;;;;3.53;1.10;;;;;;;12.81;76.09;100232.75;4083466;29;20491;-71
2023/09/23 02:32:07;;;;;;;1.55;0.90;;;;;;;12.89;75.64;100233.63;4082389;29;20046;-71
2023/09/23 02:34:10;;;;;;;0.70;0.70;;;;;;;12.78;75.98;100237.97;4083384;29;20531;-71
2023/09/23 02:36:14;;;;;;;1.85;0.88;;;;;;;12.79;75.66;100237.09;4082976;29;20035;-71
2023/09/23 02:38:18;;;;;;;2.47;0.93;;;;;;;12.76;76.08;100239.69;4083113;29;20079;-71
2023/09/23 02:40:21;;;;;;;1.17;0.90;;;;;;;12.77;76.19;100241.44;4070657;29;20048;-71
2023/09/23 02:42:23;;;;;;;3.55;0.90;;;;;;;12.82;76.01;100249.25;4097490;28;20062;-70
2023/09/23 02:44:29;;;;;;;1.10;1.00;;;;;;;12.82;76.24;100247.53;4084498;29;20081;-70
2023/09/23 02:46:34;;;;;;;1.48;0.70;;;;;;;12.80;76.34;100251.88;4079151;29;20511;-70
2023/09/23 02:48:37;;;;;;;4.30;1.00;;;;;;;12.81;76.06;100245.78;4084217;29;20448;-70
2023/09/23 02:50:40;;;;;;;2.85;1.15;;;;;;;12.73;76.21;100247.50;4083254;29;20039;-70
2023/09/23 02:52:48;;;;;;;1.88;0.90;;;;;;;12.75;76.42;100264.03;4083317;29;20035;-70
2023/09/23 02:54:51;;;;;;;1.27;0.90;;;;;;;12.73;76.18;100260.53;4079517;29;20043;-70
2023/09/23 02:56:54;;;;;;;2.67;1.00;;;;;;;12.75;76.30;100269.25;4083773;29;20126;-70
2023/09/23 02:58:57;;;;;;;2.47;1.02;;;;;;;12.71;75.98;100268.38;4067349;29;20060;-70
2023/09/23 03:01:04;;;;;;;1.85;0.93;;;;;;;12.71;76.17;100268.38;4082863;29;20031;-70
2023/09/23 03:03:18;;;;;;;4.47;1.20;;;;;;;12.68;76.52;100273.59;4084530;29;20036;-70
2023/09/23 03:05:26;;;;;;;0.98;0.80;;;;;;;12.75;75.62;100269.25;4097787;28;20062;-70
2023/09/23 03:07:32;;;;;;;1.85;0.88;;;;;;;12.67;75.97;100266.59;4067981;29;20040;-70
2023/09/23 03:09:43;;;;;;;2.15;0.90;;;;;;;12.66;76.31;100262.28;4067819;29;20036;-69
2023/09/23 03:11:53;;;;;;;1.67;0.80;;;;;;;12.65;75.98;100263.16;4084110;29;20051;-70
2023/09/23 03:13:56;;;;;;;4.25;1.38;;;;;;;12.65;76.19;100262.28;4067062;29;20051;-70
2023/09/23 03:16:07;;;;;;;0.98;0.77;;;;;;;12.62;76.24;100272.72;4083596;29;20040;-70
2023/09/23 03:18:14;;;;;;;7.05;1.00;;;;;;;12.62;76.43;100273.56;4083755;29;20063;-70
2023/09/23 03:20:22;;;;;;;1.35;0.77;;;;;;;12.61;76.31;100281.38;4083519;29;20121;-70
2023/09/23 03:22:25;;;;;;;1.17;0.60;;;;;;;12.62;76.08;100277.94;4082555;29;20163;-70
2023/09/23 03:24:29;;;;;;;6.95;1.13;;;;;;;12.60;76.51;100282.25;4082352;29;20058;-70
2023/09/23 03:26:31;;;;;;;3.08;1.00;;;;;;;12.62;76.17;100288.34;4077716;29;20065;-70
2023/09/23 03:28:35;;;;;;;2.80;0.90;;;;;;;12.55;76.29;100283.09;4066592;29;20044;-70
2023/09/23 03:30:38;;;;;;;1.33;0.80;;;;;;;12.61;75.94;100286.59;4073564;29;20131;-70
2023/09/23 03:32:41;;;;;;;2.63;1.00;;;;;;;12.49;76.16;100295.25;4095023;29;20040;-70
2023/09/23 03:34:46;;;;;;;1.73;0.88;;;;;;;12.48;76.27;100286.56;4083393;29;20503;-70
2023/09/23 03:36:53;;;;;;;1.98;0.98;;;;;;;12.34;76.53;100298.69;4082051;29;20099;-69
2023/09/23 03:38:57;;;;;;;2.15;1.05;;;;;;;12.39;76.45;100290.00;4082604;29;20043;-69
2023/09/23 03:41:02;;;;;;;3.55;0.80;;;;;;;12.40;76.22;100289.13;4083147;29;20071;-68
2023/09/23 03:43:05;;;;;;;1.80;0.80;;;;;;;12.38;76.24;100295.19;4083774;29;20056;-68
2023/09/23 03:45:10;;;;;;;2.80;0.80;;;;;;;12.26;76.45;100302.97;4082846;29;20099;-69
2023/09/23 03:47:11;;;;;;;3.45;1.42;;;;;;;12.32;76.39;100301.25;4083667;29;20403;-69
2023/09/23 03:49:14;;;;;;;0.75;0.65;;;;;;;12.26;76.64;100306.44;4082461;29;20043;-69
2023/09/23 03:51:19;;;;;;;1.83;0.90;;;;;;;12.20;76.95;100306.44;4079889;29;20051;-69
2023/09/23 03:53:22;;;;;;;1.88;0.93;;;;;;;12.20;77.01;100307.28;4082001;29;20487;-69
2023/09/23 03:55:26;;;;;;;4.85;1.33;;;;;;;12.14;76.47;100309.88;4065982;29;20524;-68
2023/09/23 03:57:29;;;;;;;4.75;1.40;;;;;;;12.15;76.81;100313.34;4079362;29;20043;-69
2023/09/23 03:59:32;;;;;;;2.72;0.93;;;;;;;12.27;76.78;100325.59;4089514;29;20176;-69
2023/09/23 04:01:36;;;;;;;1.37;0.77;;;;;;;12.31;76.65;100322.09;4082644;29;20127;-69
2023/09/23 04:03:39;;;;;;;1.60;0.98;;;;;;;12.46;75.51;100314.38;4082144;29;20684;-69
2023/09/23 04:05:42;;;;;;;1.42;0.63;;;;;;;12.31;75.42;100316.88;4081885;29;20028;-69
2023/09/23 04:07:49;;;;;;;1.80;1.17;;;;;;;12.33;75.87;100328.22;4078135;29;20067;-69
2023/09/23 04:09:52;;;;;;;1.52;0.95;;;;;;;12.26;76.09;100319.47;4083300;29;20044;-69
2023/09/23 04:11:55;;;;;;;1.55;0.77;;;;;;;12.30;75.68;100329.06;4081977;29;20541;-69
2023/09/23 04:13:58;;;;;;;1.23;0.80;;;;;;;12.16;76.02;100329.00;4083423;29;20495;-70
2023/09/23 04:16:01;;;;;;;2.72;0.90;;;;;;;12.17;76.13;100324.66;4082942;29;20040;-69
2023/09/23 04:18:05;;;;;;;1.40;0.88;;;;;;;12.12;76.34;100329.84;4083003;29;20056;-70
2023/09/23 04:20:10;;;;;;;3.80;1.00;;;;;;;12.13;76.65;100336.78;4083261;29;20044;-70
2023/09/23 04:22:13;;;;;;;2.15;0.80;;;;;;;12.17;76.48;100335.94;4083198;29;20039;-70
2023/09/23 04:24:18;;;;;;;1.13;0.93;;;;;;;12.19;76.52;100339.44;4083208;29;20077;-70
2023/09/23 04:26:21;;;;;;;3.05;0.85;;;;;;;12.17;76.18;100343.75;4082622;29;20036;-69
2023/09/23 04:28:24;;;;;;;3.70;0.90;;;;;;;12.15;76.44;100355.91;4081680;29;20301;-70
2023/09/23 04:30:26;;;;;;;2.40;1.00;;;;;;;12.18;76.71;100342.91;4082118;29;20123;-69
2023/09/23 04:32:34;;;;;;;0.73;0.73;;;;;;;12.22;76.16;100349.88;4083092;29;20126;-70
2023/09/23 04:34:37;;;;;;;2.47;1.05;;;;;;;12.18;75.78;100347.25;4083064;29;20168;-70
2023/09/23 04:36:39;;;;;;;2.85;0.80;;;;;;;12.16;76.24;100351.56;4082454;29;20039;-70
2023/09/23 04:38:43;;;;;;;4.22;1.00;;;;;;;12.11;75.94;100354.16;4082873;29;20044;-70
2023/09/23 04:40:49;;;;;;;1.83;1.08;;;;;;;12.15;76.37;100355.91;4054434;29;20068;-70
2023/09/23 04:42:51;;;;;;;2.80;0.90;;;;;;;12.16;76.38;100360.28;4082630;29;20127;-70
2023/09/23 04:44:54;;;;;;;1.95;0.93;;;;;;;12.18;75.91;100366.38;4082530;29;20059;-70
2023/09/23 04:46:57;;;;;;;1.98;0.70;;;;;;;12.17;75.87;100363.75;4082147;29;20032;-69
2023/09/23 04:49:00;;;;;;;3.97;1.25;;;;;;;12.16;76.19;100352.47;4082691;29;20139;-70
2023/09/23 04:51:03;;;;;;;1.10;0.85;;;;;;;12.17;76.60;100354.19;4082699;29;20042;-70
2023/09/23 04:53:07;;;;;;;0.75;0.75;;;;;;;12.19;76.19;100354.19;4082140;29;20040;-69
2023/09/23 04:55:11;;;;;;;4.90;0.88;;;;;;;12.16;76.57;100359.38;4082486;29;20070;-69
2023/09/23 04:57:15;;;;;;;1.00;0.90;;;;;;;12.18;76.08;100366.38;4082356;29;20058;-69
2023/09/23 04:59:18;;;;;;;1.95;1.15;;;;;;;12.15;76.33;100366.34;4082590;29;20046;-69
2023/09/23 05:01:21;;;;;;;3.92;1.10;;;;;;;12.14;76.48;100375.03;4082418;29;20122;-69
2023/09/23 05:03:24;;;;;;;3.53;1.40;;;;;;;12.18;76.71;100375.94;4082490;29;20051;-69
2023/09/23 05:05:27;;;;;;;4.80;1.23;;;;;;;12.17;76.16;100382.84;4093524;28;20517;-69
2023/09/23 05:07:29;;;;;;;2.33;1.00;;;;;;;12.15;76.57;100375.88;4084606;29;20127;-69
2023/09/23 05:09:34;;;;;;;2.72;1.27;;;;;;;12.13;76.48;100381.09;4085838;29;20437;-69
2023/09/23 05:11:37;;;;;;;1.45;1.17;;;;;;;12.11;76.81;100389.78;4086094;29;20091;-70
2023/09/23 05:13:41;;;;;;;1.98;1.27;;;;;;;12.11;76.11;100395.84;4086262;29;20040;-69
2023/09/23 05:15:44;;;;;;;2.60;1.35;;;;;;;12.11;76.14;100401.06;4085113;29;20130;-70
2023/09/23 05:17:47;;;;;;;4.07;1.40;;;;;;;12.04;76.19;100401.88;4085204;29;20043;-69
2023/09/23 05:19:52;;;;;;;3.33;1.40;;;;;;;12.05;76.59;100406.22;4085206;29;20035;-69
2023/09/23 05:21:55;;;;;;;1.33;0.90;;;;;;;12.07;76.14;100404.50;4082003;29;20430;-69
2023/09/23 05:24:00;;;;;;;1.75;1.38;;;;;;;12.05;76.27;100411.44;4084061;29;20295;-69
2023/09/23 05:26:04;;;;;;;2.55;1.40;;;;;;;12.05;76.33;100407.09;4083845;29;20127;-69
2023/09/23 05:28:10;;;;;;;2.03;1.00;;;;;;;12.03;76.03;100403.63;4084176;29;20063;-69
2023/09/23 05:30:14;;;;;;;2.65;1.00;;;;;;;12.05;75.95;100420.13;4082062;29;20120;-69
2023/09/23 05:32:17;;;;;;;3.28;1.42;;;;;;;12.03;76.24;100415.75;4085496;29;20075;-70
2023/09/23 05:34:20;;;;;;;4.75;1.17;;;;;;;12.04;76.55;100420.97;4084534;29;20499;-69
2023/09/23 05:36:23;;;;;;;4.30;1.15;;;;;;;12.10;76.38;100427.97;4084907;29;20043;-69
2023/09/23 05:38:26;;;;;;;2.33;0.88;;;;;;;12.11;75.91;100427.13;4084972;29;20047;-70
2023/09/23 05:40:29;;;;;;;1.63;0.90;;;;;;;12.12;76.02;100431.47;4085600;29;20039;-69
2023/09/23 05:42:32;;;;;;;1.67;1.10;;;;;;;12.16;76.00;100433.25;4085146;29;20455;-69
2023/09/23 05:44:35;;;;;;;1.23;0.90;;;;;;;12.18;75.84;100436.72;4085213;29;20463;-69
2023/09/23 05:46:40;;;;;;;2.08;0.98;;;;;;;12.18;75.75;100436.72;4081716;29;20416;-70
2023/09/23 05:48:43;;;;;;;;;;;;;;;12.04;76.41;100439.22;4085463;29;20054;-69
2023/09/23 05:50:46;;;;;;;1.15;0.75;;;;;;;12.08;76.53;100434.06;4085133;29;19989;-69
2023/09/23 05:52:48;;;;;;;1.92;0.82;;;;;;;12.10;76.61;100445.34;4084075;29;20503;-69
2023/09/23 05:54:51;;;;;;;4.82;1.00;;;;;;;12.13;76.33;100441.03;4083925;29;20526;-69
2023/09/23 05:56:54;;;;;;;2.45;1.00;;;;;;;12.15;76.96;100448.84;4084170;29;20086;-70
2023/09/23 05:58:57;;;;;;;1.52;1.05;;;;;;;12.17;76.89;100449.75;4090084;28;20043;-70
2023/09/23 06:01:00;;;;;;;1.50;0.90;;;;;;;12.18;76.42;100452.38;4084769;29;20046;-69
2023/09/23 06:03:03;;;;;;;2.15;1.10;;;;;;;12.19;76.69;100456.72;4085002;29;20081;-69
2023/09/23 06:05:07;;;;;;;2.88;1.40;;;;;;;12.19;76.30;100451.50;4083462;29;20061;-70
2023/09/23 06:07:10;;;;;;;4.13;1.83;;;;;;;12.23;76.27;100462.81;4084928;29;20111;-70
2023/09/23 06:09:15;;;;;;;7.10;1.13;;;;;;;12.23;76.19;100458.47;4084991;29;20134;-70
2023/09/23 06:11:18;;;;;;;4.15;1.13;;;;;;;12.25;76.27;100468.03;4083760;29;20039;-69
2023/09/23 06:13:21;;;;;;;4.18;1.10;;;;;;;12.22;76.36;100467.16;4084759;29;20103;-70
2023/09/23 06:15:24;;;;;;;3.05;1.30;;;;;;;12.26;76.14;100469.81;4084403;29;20111;-69
2023/09/23 06:17:27;;;;;;;1.83;1.20;;;;;;;12.28;76.00;100478.50;4084870;29;20047;-70
2023/09/23 06:19:34;;;;;;;2.53;1.20;;;;;;;12.31;75.66;100476.78;4084676;29;20142;-70
2023/09/23 06:21:37;;;;;;;2.03;1.10;;;;;;;12.36;75.56;100482.03;4084723;29;20143;-70
2023/09/23 06:23:40;;;;;;;3.20;1.73;;;;;;;12.38;75.51;100488.13;4084838;29;20050;-70
2023/09/23 06:25:43;;;;;;;3.33;1.13;;;;;;;12.46;75.38;100491.66;4084425;29;20043;-70
2023/09/23 06:27:46;;;;;;;3.30;1.13;;;;;;;12.40;75.11;100495.09;4080794;29;20447;-69
2023/09/23 06:29:49;;;;;;;2.05;1.02;;;;;;;12.37;75.15;100494.22;4084745;29;20044;-70
2023/09/23 06:31:53;;;;;;;2.08;0.80;;;;;;;12.36;75.30;100487.25;4080882;29;20048;-69
2023/09/23 06:33:56;;;;;;;1.33;0.80;;;;;;;12.43;75.16;100491.66;4084739;29;20483;-69
2023/09/23 06:36:04;;;;;;;2.70;1.02;;;;;;;12.40;75.31;100496.84;4084373;29;20059;-69
2023/09/23 06:38:07;;;;;;;2.00;0.80;;;;;;;12.37;75.80;100494.22;4081492;29;20040;-69
2023/09/23 06:40:10;;;;;;;5.82;1.38;;;;;;;12.34;75.70;100502.88;4083450;29;20056;-70
2023/09/23 06:42:13;;;;;;;4.85;0.98;;;;;;;12.37;75.77;100507.25;4084089;29;20071;-69
2023/09/23 06:44:15;;;;;;;5.25;1.08;;;;;;;12.38;75.97;100508.97;4097120;29;20043;-69
2023/09/23 06:46:17;;;;;;;2.33;0.88;;;;;;;12.40;76.06;100518.56;4080233;29;20048;-68
2023/09/23 06:48:20;;;;;;;2.17;0.95;;;;;;;12.49;75.80;100522.13;4084207;29;20467;-68
2023/09/23 06:50:22;;;;;;;2.40;0.93;;;;;;;12.46;75.72;100525.56;4084701;29;20044;-68
2023/09/23 06:52:27;;;;;;;1.92;1.00;;;;;;;12.51;75.77;100525.59;4083635;29;20483;-68
2023/09/23 06:54:29;;;;;;;3.00;0.90;;;;;;;12.51;76.07;100531.69;4084346;29;20046;-68
2023/09/23 06:56:34;;;;;;;9.63;2.45;;;;;;;12.53;75.96;100529.97;4084087;29;20522;-68
2023/09/23 06:58:37;;;;;;;;;;;;;;;12.53;76.33;100526.50;4080755;29;20073;-68
2023/09/23 07:00:40;;;;;;;1.60;0.90;;;;;;;12.59;76.13;100534.34;4084039;29;19923;-68
2023/09/23 07:02:43;;;;;;;3.33;0.82;;;;;;;12.62;76.02;100536.13;4082737;29;20067;-68
2023/09/23 07:04:46;;;;;;;2.38;0.80;;;;;;;12.67;76.19;100543.09;4084157;29;20039;-68
2023/09/23 07:06:48;;;;;;;3.03;1.00;;;;;;;12.73;75.60;100537.94;4083737;29;20039;-68
2023/09/23 07:08:53;;;;;;;1.90;0.88;;;;;;;12.73;75.47;100547.47;4083878;29;20422;-68
2023/09/23 07:10:57;;;;;;;4.43;1.00;;;;;;;12.77;75.55;100541.41;4082889;29;20090;-68
2023/09/23 07:13:01;;;;;;;2.22;1.00;;;;;;;12.89;74.92;100549.34;4083923;29;20090;-68
2023/09/23 07:15:04;;;;;;;1.70;0.93;;;;;;;12.83;74.79;100554.50;4083629;29;20122;-68
2023/09/23 07:17:07;;;;;;;1.55;0.80;;;;;;;12.88;74.98;100542.38;4083017;29;20047;-68
2023/09/23 07:19:14;;;;;;;4.07;1.10;;;;;;;12.90;74.75;100551.06;4084727;29;20044;-68
2023/09/23 07:21:17;;;;;;;5.85;1.33;;;;;;;13.07;73.50;100552.91;4083846;29;20463;-68
2023/09/23 07:23:20;;;;;;;2.03;0.98;;;;;;;12.99;73.59;100546.78;4083792;29;20039;-68
2023/09/23 07:25:24;;;;;;;1.95;0.93;;;;;;;12.92;74.14;100548.47;4083411;29;20107;-68
2023/09/23 07:27:28;;;;;;;1.58;1.05;;;;;;;12.84;74.54;100548.44;4083705;29;20519;-68
2023/09/23 07:29:33;;;;;;;2.30;0.90;;;;;;;12.86;75.26;100551.91;4083413;29;20419;-69
2023/09/23 07:31:36;;;;;;;1.67;1.10;;;;;;;12.93;75.07;100552.81;4083736;29;20091;-68
2023/09/23 07:33:37;;;;;;;2.00;1.10;;;;;;;12.99;74.94;100550.25;4081826;29;20074;-69
2023/09/23 07:35:40;;;;;;;4.25;1.10;;;;;;;13.07;74.20;100558.16;4081593;29;20399;-70
2023/09/23 07:37:43;;;;;;;2.17;1.33;;;;;;;13.04;74.16;100565.94;4082215;29;20130;-69
2023/09/23 07:39:46;;;;;;;2.25;1.38;;;;;;;13.06;74.53;100566.81;4066971;29;20044;-69
2023/09/23 07:41:50;;;;;;;4.35;1.08;;;;;;;13.10;74.60;100569.47;4083736;29;20574;-69
2023/09/23 07:43:53;;;;;;;3.08;1.10;;;;;;;13.14;74.95;100572.97;4086425;29;20059;-69
2023/09/23 07:45:56;;;;;;;1.60;1.25;;;;;;;13.19;74.58;100573.84;4083345;29;20496;-69
2023/09/23 07:47:59;;;;;;;6.03;1.55;;;;;;;13.25;74.41;100575.63;4083267;29;20044;-69
2023/09/23 07:50:02;;;;;;;3.90;1.23;;;;;;;13.36;74.49;100580.94;4083616;29;20054;-71
2023/09/23 07:52:05;;;;;;;2.47;1.10;;;;;;;13.42;74.06;100591.41;4083640;29;20539;-69
2023/09/23 07:54:08;;;;;;;3.08;1.00;;;;;;;13.47;73.98;100589.69;4082722;29;20106;-69
2023/09/23 07:56:11;;;;;;;2.70;1.05;;;;;;;13.59;74.10;100592.38;4083015;29;20098;-68
2023/09/23 07:58:15;;;;;;;6.18;1.83;;;;;;;13.61;73.59;100598.47;4080361;29;20503;-68
2023/09/23 08:00:19;;;;;;;2.63;0.90;;;;;;;13.54;74.61;100606.28;4083235;28;20048;-68
2023/09/23 08:02:21;;;;;;;2.08;0.95;;;;;;;13.57;74.18;100601.91;4079719;29;20559;-68
2023/09/23 08:04:24;;;;;;;3.15;0.85;;;;;;;13.71;74.18;100614.16;4082928;29;20460;-68
2023/09/23 08:06:27;;;;;;;3.10;1.35;;;;;;;13.73;74.57;100625.50;4074888;23;20071;-61
2023/09/23 08:08:30;;;;;;;2.22;1.00;;;;;;;13.76;73.81;100622.91;4036223;29;20519;-61
2023/09/23 08:10:33;;;;;;;5.50;1.15;;;;;;;13.75;73.63;100622.00;4047720;29;20041;-63
2023/09/23 08:12:36;;;;;;;1.40;1.10;;;;;;;13.81;72.98;100625.53;4037988;29;20064;-64
2023/09/23 08:14:45;;;;;;;4.65;1.10;;;;;;;13.73;73.12;100623.75;4039543;29;20045;-61
2023/09/23 08:16:50;;;;;;;3.70;1.08;;;;;;;13.61;73.10;100619.34;4048673;29;20068;-61
2023/09/23 08:18:53;;;;;;;1.80;0.93;;;;;;;13.72;72.76;100628.97;4047519;29;20048;-63
2023/09/23 08:20:57;;;;;;;2.17;1.20;;;;;;;13.78;72.30;100627.28;4045028;29;20088;-63
2023/09/23 08:23:00;;;;;;;1.50;0.93;;;;;;;13.90;72.96;100628.16;4047108;29;20516;-63
2023/09/23 08:25:03;;;;;;;3.33;1.50;;;;;;;14.00;72.31;100629.94;4048466;29;20065;-60
2023/09/23 08:27:05;;;;;;;3.90;0.95;;;;;;;14.09;71.67;100632.59;4038796;29;20052;-62
2023/09/23 08:29:09;;;;;;;3.55;1.40;;;;;;;14.16;71.83;100630.84;4046985;29;20048;-62
2023/09/23 08:31:14;;;;;;;2.95;1.33;;;;;;;14.23;71.83;100634.34;4049853;29;20040;-62
2023/09/23 08:33:20;;;;;;;8.52;0.93;;;;;;;14.40;71.57;100637.00;4038487;29;20453;-61
2023/09/23 08:35:23;;;;;;;3.20;1.00;;;;;;;14.47;70.68;100628.28;4048100;29;20136;-60
2023/09/23 08:37:25;;;;;;;3.70;0.95;;;;;;;14.46;70.77;100642.25;4051017;29;20072;-60
2023/09/23 08:39:28;;;;;;;2.40;0.90;;;;;;;14.47;71.29;100644.84;4042162;29;20033;-61
2023/09/23 08:41:31;;;;;;;1.88;1.00;;;;;;;14.58;70.74;100652.72;4031295;29;20041;-61
2023/09/23 08:43:37;;;;;;;2.28;1.10;;;;;;;14.64;70.27;100642.28;4036686;29;20394;-64
2023/09/23 08:45:44;;;;;;;2.03;1.20;;;;;;;14.65;70.75;100649.25;4065370;29;20052;-63
2023/09/23 08:47:48;;;;;;;2.20;0.90;;;;;;;14.76;70.65;100656.25;4037279;29;20057;-62
2023/09/23 08:49:52;;;;;;;3.58;1.00;;;;;;;14.84;71.30;100644.03;4035127;29;20112;-61
2023/09/23 08:51:56;;;;;;;3.25;1.10;;;;;;;14.91;70.29;100644.88;4037906;29;20041;-61
2023/09/23 08:54:00;;;;;;;3.40;1.05;;;;;;;14.93;69.67;100638.78;4040893;29;20073;-60
2023/09/23 08:56:05;;;;;;;2.47;1.02;;;;;;;14.97;69.26;100643.16;4029384;29;20531;-61
2023/09/23 08:58:08;;;;;;;1.50;0.93;;;;;;;14.98;69.30;100649.25;4042971;29;20052;-62
2023/09/23 09:00:13;;;;;;;3.75;1.33;;;;;;;14.94;68.25;100650.16;4078691;29;20438;-62
2023/09/23 09:02:22;;;;;;;3.05;1.02;;;;;;;15.07;68.32;100656.22;4034722;29;20072;-62
2023/09/23 09:04:26;;;;;;;4.25;0.93;;;;;;;15.12;68.42;100659.72;4042000;29;20142;-62
2023/09/23 09:06:29;;;;;;;1.90;0.80;;;;;;;15.13;67.97;100651.84;4044443;29;20068;-61
2023/09/23 09:08:32;;;;;;;1.45;0.77;;;;;;;15.22;67.83;100661.44;4048769;29;20048;-61
2023/09/23 09:10:35;;;;;;;4.53;1.13;;;;;;;15.38;67.94;100664.06;4068542;29;20093;-61
2023/09/23 09:12:42;;;;;;;3.97;0.90;;;;;;;15.45;67.42;100663.13;4032845;29;20520;-61
2023/09/23 09:14:49;;;;;;;3.53;1.33;;;;;;;15.48;66.50;100663.16;4036442;29;20045;-62
2023/09/23 09:17:01;;;;;;;3.92;1.02;;;;;;;15.59;66.30;100665.72;4030720;29;20076;-62
2023/09/23 09:19:05;;;;;;;2.83;1.23;;;;;;;15.67;65.98;100662.19;4042622;29;20045;-61
2023/09/23 09:21:10;;;;;;;2.60;0.95;;;;;;;15.81;66.14;100663.94;4033958;29;20052;-62
2023/09/23 09:23:13;;;;;;;1.92;0.77;;;;;;;15.83;66.12;100665.66;4035277;29;20055;-62
2023/09/23 09:25:20;;;;;;;3.22;0.73;;;;;;;16.01;66.33;100664.69;4032371;29;20041;-61
2023/09/23 09:27:23;;;;;;;3.55;1.08;;;;;;;16.14;65.74;100664.66;4033308;29;20088;-62
2023/09/23 09:29:26;;;;;;;3.38;0.80;;;;;;;16.23;65.42;100668.06;4046167;29;20067;-62
2023/09/23 09:31:33;;;;;;;2.00;1.10;;;;;;;16.28;65.04;100673.31;4050808;29;20044;-62
2023/09/23 09:33:38;;;;;;;2.63;0.93;;;;;;;16.39;64.31;100666.22;4039058;29;20056;-62
2023/09/23 09:35:41;;;;;;;2.35;0.90;;;;;;;16.44;64.14;100668.84;4036076;29;20405;-62
2023/09/23 09:37:46;;;;;;;2.83;0.90;;;;;;;16.57;63.93;100664.38;4036045;29;20045;-62